CheckWX is a tool to help pilots better visualize weather data.  It is not intended as a substitute for an official pre-flight weather briefing.

18:27:07 UTC

KSGR METAR
Sugar Land Regional Airport
Houston, Texas, USA
Current

34 mins ago

KSGR 241753Z 13009KT 10SM OVC017 24/21 A2987 RMK AO2 SLP115 60000 T02390211 10239 20211 56016
Observed
Apr-24 @ 17:53 UTC
Wind
  • 130° at 9 KTS
Visibility
10 SM
Flight Rules
MVFR
Cloud Levels
  • Overcast at 1,700' AGL
Temperature
24°C / 75°F
Dewpoint
21°C / 70°F
Humidity
83%
Altimeter
29.87" Hg
Pressure
1011.52 hPa
Previous

46 mins ago

KSGR 241741Z 13011G17KT 10SM OVC015 23/21 A2988 RMK AO2 T02330206
Observed
Apr-24 @ 17:41 UTC
Wind
  • 130° at 11 KTS
  • Gusting to 17 KTS
Visibility
10 SM
Flight Rules
MVFR
Cloud Levels
  • Overcast at 1,500' AGL
Temperature
23°C / 73°F
Dewpoint
21°C / 70°F
Humidity
89%
Altimeter
29.88" Hg
Pressure
1011.82 hPa
Previous

2 hours ago

KSGR 241653Z 13012KT 10SM BKN011 OVC017 23/21 A2988 RMK AO2 RAE33 SLP120 P0000 T02280206
Observed
Apr-24 @ 16:53 UTC
Wind
  • 130° at 12 KTS
Visibility
10 SM
Flight Rules
MVFR
Cloud Levels
  • Broken at 1,100' AGL
  • Overcast at 1,700' AGL
Temperature
23°C / 73°F
Dewpoint
21°C / 70°F
Humidity
89%
Altimeter
29.88" Hg
Pressure
1011.82 hPa
Current Rain
0.01"